Jump to content


KLM FLIGHT KL861 FLOWN ON 08-21-2017 BY CAPTAIN JIM BOERMAN

Pilot StatsCaptain Jim Boerman (LDP136) • 4,578.9 total hours • 1,395 total flights [View Logbook]
FLIGHT DETAILS
StatusReceived and approved on 2017-08-21 at 19:08:17
Origin AirportSchiphol (EHAM) • Amsterdam, Netherlands (-11 feet MSL)
Filed Flight PlanFLIGHT PLANNER OFFLINE
Destination AirportNarita Intl (RJAA) • Tokyo, Japan (135 feet MSL)
Alternate AirportTokyo (Haneda) Intl (RJTT) • Tokyo, Japan (21 feet MSL)
AirlineKLM
AircraftBoeing 777-300ER (77W / B777-300ER)
FS Aircraft UsedPMDG 777-306ER KLM Royal Dutch Airlines (PH-BVA | 2016)
Cruising AltitudeFL350
Distance Flown5,032 nautical miles
Passengers Onboard170 passengers (44.04% full)
DEPARTURE DETAILS
Time Out14:37:25
Taxi Data674,348 lbs total with 205,083 lbs of fuel onboard
Takeoff Data14:50:24 (13 minutes after leaving gate/ramp) • 672,335 lbs total • 7° pitch at 205 knots
Departure METAREHAM 211125Z 26005KT 180V320 9999 FEW025TCU 19/14 Q1023 NOSIG
ARRIVAL DETAILS
Landing Data08:18:18 • 494,840 lbs total • 5° pitch doing 132 knots at a rate of -329.88 feet/minute with 23,794 lbs of fuel onboard
Time In08:36:30 (18 minutes after landing)
Ramp Weight493,059 lbs total
Total Fuel Used181,289 lbs
Total Block Time10:56:36 (10.9 hours) while 31 minutes were spent on the ground
Arrival METARRJAA 212330Z 20005KT 180V240 9999 FEW013 BKN/// 28/25 Q1015 NOSIG RMK 2CU013 A2997
MISCELLANEOUS DETAILS
LiveDISPATCH Version4.8.3.1
FS Version
FSUIPC Version4.93
OS VersionWindows 7 32-bit
Screen Resolution1920 x 1080
Pilot's CommentsNo Comments Reported
FLIGHT MAP